»·PEaware :: UPS2992 KPDX-KBFI

UPS2992 :: KPDX-KBFI

FLIGHT INFORMATION

Flight Status: Arrived
Operator:
United Parcel Service
More flights by this operator :: More flights under this callsign
Pilot: Andrew C. (28419)
Aircraft: BOEING 757-200
(B752)
More flights by this aircraft type
Origin: KPDX Portland Intl
United States
Destination: KBFI Boeing Field/King Co Intl
United States
More flights between these airports :: More routes between these airports
Route: BTG OLM2
File this flight plan on PilotEdge
Remarks: RMK / SIMBRIEF
Altitude:
(Current/Filed)
20,000ft
Speed:
(Current/Filed)
388kts
Departed: 07-Jul-20 09:03 PM
Arrived: 07-Jul-20 09:40 PM
Distance/Time
Traveled:
117nm/0:37
Distance/Time
To Go:
Arrived

Flight Plot

Page will automatically refresh every two minutes.


Map Options




Map Legend


Flown Route
Filed Route
Departure Airport
Arrival Airport
Navaid (VOR, NDB)
Fix

Horizontal Profiles

Position Reports

Time Latitude Longitude Heading Altitude Ground
Speed
07-Jul-20 20:38 45.584581 -122.608290 134 32ft 0kts
07-Jul-20 20:38 45.584581 -122.608290 134 33ft 0kts
07-Jul-20 20:40 45.584581 -122.608290 134 33ft 0kts
07-Jul-20 20:40 45.584581 -122.608290 134 33ft 0kts
07-Jul-20 20:41 45.584581 -122.608290 134 33ft 0kts
07-Jul-20 20:43 45.584581 -122.608290 134 32ft 0kts
07-Jul-20 20:43 45.584581 -122.608290 134 32ft 0kts
07-Jul-20 20:44 45.584581 -122.608290 134 32ft 0kts
07-Jul-20 20:45 45.584581 -122.608290 134 33ft 0kts
07-Jul-20 20:46 45.584581 -122.608290 134 33ft 0kts
07-Jul-20 20:47 45.584581 -122.608290 134 33ft 0kts
07-Jul-20 20:48 45.584581 -122.608290 134 33ft 0kts
07-Jul-20 20:49 45.584581 -122.608290 134 33ft 0kts
07-Jul-20 20:50 45.584581 -122.608290 134 33ft 0kts
07-Jul-20 20:51 45.584581 -122.608290 134 33ft 0kts
07-Jul-20 20:52 45.584581 -122.608290 134 33ft 0kts
07-Jul-20 20:53 45.584695 -122.608451 134 33ft 2kts
07-Jul-20 20:54 45.584902 -122.608960 94 32ft 2kts
07-Jul-20 20:55 45.584734 -122.609596 43 32ft 1kts
07-Jul-20 20:56 45.584722 -122.609613 43 32ft 0kts
07-Jul-20 20:57 45.584722 -122.609613 43 32ft 0kts
07-Jul-20 20:58 45.587244 -122.607758 45 33ft 20kts
07-Jul-20 20:59 45.589700 -122.611200 282 33ft 12kts
07-Jul-20 21:00 45.591803 -122.619015 298 30ft 21kts
07-Jul-20 21:01 45.594826 -122.621162 90 32ft 17kts
07-Jul-20 21:02 45.580725 -122.581699 104 957ft 171kts
07-Jul-20 21:03 45.569820 -122.504565 99 2436ft 221kts
07-Jul-20 21:04 45.557742 -122.408232 99 4773ft 265kts
07-Jul-20 21:05 45.564114 -122.305718 36 7623ft 275kts
07-Jul-20 21:06 45.628945 -122.321797 326 10321ft 271kts
07-Jul-20 21:07 45.708448 -122.380496 329 11653ft 350kts
07-Jul-20 21:08 45.797105 -122.448535 329 14818ft 366kts
07-Jul-20 21:09 45.888985 -122.519551 329 17712ft 380kts
07-Jul-20 21:10 45.985244 -122.594260 329 20160ft 395kts
07-Jul-20 21:11 46.083552 -122.669329 334 20173ft 401kts
07-Jul-20 21:12 46.193455 -122.702813 346 20182ft 404kts
07-Jul-20 21:13 46.304477 -122.730984 346 20185ft 404kts
07-Jul-20 21:14 46.415214 -122.759046 346 20172ft 388kts
07-Jul-20 21:15 46.514907 -122.784332 345 18907ft 336kts
07-Jul-20 21:16 46.614494 -122.809875 346 17341ft 363kts
07-Jul-20 21:17 46.713843 -122.835344 346 15754ft 357kts
07-Jul-20 21:18 46.810682 -122.860266 346 14327ft 350kts
07-Jul-20 21:19 46.906120 -122.884914 346 13022ft 339kts
07-Jul-20 21:20 46.990111 -122.873074 31 13009ft 303kts
07-Jul-20 21:21 47.055748 -122.794466 36 12999ft 305kts
07-Jul-20 21:22 47.124256 -122.726568 15 12426ft 294kts
07-Jul-20 21:23 47.198129 -122.688100 15 12192ft 260kts
07-Jul-20 21:24 47.264208 -122.653563 12 11087ft 249kts
07-Jul-20 21:25 47.330458 -122.627422 11 9788ft 245kts
07-Jul-20 21:26 47.395780 -122.602924 12 8550ft 242kts
07-Jul-20 21:27 47.460821 -122.578148 12 7348ft 237kts
07-Jul-20 21:28 47.524032 -122.552112 32 6152ft 235kts
07-Jul-20 21:29 47.562539 -122.480486 25 5387ft 198kts
07-Jul-20 21:30 47.613157 -122.458998 353 4521ft 186kts
07-Jul-20 21:31 47.647761 -122.512457 305 3488ft 184kts
07-Jul-20 21:32 47.683164 -122.563360 8 2521ft 180kts
07-Jul-20 21:33 47.688610 -122.503545 125 2506ft 180kts
07-Jul-20 21:34 47.660610 -122.443333 123 2611ft 160kts
07-Jul-20 21:35 47.636197 -122.395490 144 2233ft 147kts
07-Jul-20 21:36 47.602277 -122.360555 156 1601ft 146kts
07-Jul-20 21:37 47.566496 -122.333426 150 591ft 141kts
07-Jul-20 21:38 47.534853 -122.306576 151 30ft 118kts
07-Jul-20 21:39 47.523034 -122.296453 124 29ft 26kts
07-Jul-20 21:40 47.524113 -122.295932 329 29ft 9kts
07-Jul-20 21:41 47.529971 -122.299495 329 29ft 23kts
07-Jul-20 21:42 47.534156 -122.302982 340 29ft 10kts
07-Jul-20 21:43 47.534810 -122.302294 51 29ft 0kts

Navigation Log

Ident Type
Flight plan parsing failed, navigation log unavailable